Time;durP1;ratioP1;P1;durP2;ratioP2;P2;SDS_P1;SDS_P2;PMS_P1;PMS_P2;Temp;Humidity;BMP_temperature;BMP_pressure;BME280_temperature;BME280_humidity;BME280_pressure;Samples;Min_cycle;Max_cycle;Signal;HPM_P1;HPM_P2
2021/07/15 00:00:09;;;;;;;12.60;9.18;;;;;;;26.51;57.50;100236.92;1650934;84;21060;-82
2021/07/15 00:02:36;;;;;;;9.63;8.48;;;;;;;26.47;57.65;100245.47;1675194;84;21043;-83
2021/07/15 00:05:11;;;;;;;10.65;8.85;;;;;;;26.44;57.91;100247.41;1701374;84;21133;-83
2021/07/15 00:07:42;;;;;;;11.63;9.93;;;;;;;26.39;58.15;100236.02;1680096;84;21043;-84
2021/07/15 00:10:23;;;;;;;11.00;9.95;;;;;;;26.35;58.43;100243.73;1684085;84;21071;-83
2021/07/15 00:12:53;;;;;;;10.13;8.90;;;;;;;26.30;58.65;100236.99;1691922;84;21038;-82
2021/07/15 00:15:25;;;;;;;13.20;8.60;;;;;;;26.28;58.86;100235.92;1679945;84;21059;-80
2021/07/15 00:17:55;;;;;;;10.28;9.53;;;;;;;26.34;58.69;100233.92;1688758;84;21084;-81
2021/07/15 00:20:26;;;;;;;11.57;9.75;;;;;;;26.30;58.86;100236.43;1687264;84;21187;-82
2021/07/15 00:22:56;;;;;;;10.78;9.48;;;;;;;26.25;59.08;100234.33;1702490;82;21061;-81
2021/07/15 00:25:25;;;;;;;10.53;9.50;;;;;;;26.22;59.19;100231.08;1707922;81;21150;-82
2021/07/15 00:27:53;;;;;;;11.78;9.53;;;;;;;26.18;59.32;100236.89;1722592;81;21153;-81
2021/07/15 00:30:20;;;;;;;10.43;9.48;;;;;;;26.09;59.73;100241.38;1725565;81;21102;-82
2021/07/15 00:32:47;;;;;;;11.30;9.38;;;;;;;26.06;59.91;100243.33;1720766;82;20982;-82
2021/07/15 00:35:15;;;;;;;10.10;9.20;;;;;;;26.08;59.89;100237.02;1720609;82;21041;-82
2021/07/15 00:37:44;;;;;;;19.40;9.70;;;;;;;26.05;59.98;100233.52;1705350;82;21672;-82
2021/07/15 00:40:14;;;;;;;10.53;9.10;;;;;;;25.99;60.33;100234.15;1703054;82;21037;-82
2021/07/15 00:42:44;;;;;;;11.63;10.43;;;;;;;25.55;60.34;100168.91;1700294;82;21041;-83
2021/07/15 00:45:13;;;;;;;10.40;9.30;;;;;;;25.91;60.58;100244.88;1706428;82;21140;-84
2021/07/15 00:47:40;;;;;;;13.55;9.18;;;;;;;25.89;60.60;100227.97;1671320;84;21023;-80
2021/07/15 00:50:10;;;;;;;10.15;9.18;;;;;;;25.91;60.48;100225.20;1688677;82;21094;-82
2021/07/15 00:52:39;;;;;;;10.23;9.00;;;;;;;25.92;60.49;100228.77;1670850;83;21086;-81
2021/07/15 00:55:24;;;;;;;11.78;9.93;;;;;;;25.90;60.52;100229.58;1713929;81;21065;-81
2021/07/15 00:57:52;;;;;;;10.82;9.88;;;;;;;25.88;60.59;100229.90;1705734;81;21112;-82
2021/07/15 01:00:21;;;;;;;10.43;9.43;;;;;;;25.84;60.71;100231.56;1729337;81;21058;-81
2021/07/15 01:02:47;;;;;;;9.53;8.83;;;;;;;25.83;60.64;100231.32;1695560;83;21093;-80
2021/07/15 01:05:21;;;;;;;10.63;9.53;;;;;;;25.87;60.48;100235.09;1674364;84;21074;-82
2021/07/15 01:07:48;;;;;;;10.95;9.93;;;;;;;25.85;60.54;100235.94;1686372;83;21520;-75
2021/07/15 01:10:21;;;;;;;9.58;8.68;;;;;;;25.79;60.65;100234.38;1690250;83;21069;-82
2021/07/15 01:13:04;;;;;;;10.72;9.68;;;;;;;25.74;60.78;100237.17;1711601;82;21105;-79
2021/07/15 01:15:43;;;;;;;10.28;9.30;;;;;;;25.67;60.97;100239.44;1687480;81;21050;-76
2021/07/15 01:18:34;;;;;;;10.80;9.93;;;;;;;25.70;60.90;100238.86;1702753;81;21045;-78
2021/07/15 01:21:24;;;;;;;12.23;9.50;;;;;;;25.71;60.78;100245.40;1722551;81;21010;-80
2021/07/15 01:24:37;;;;;;;10.53;9.63;;;;;;;25.72;60.62;100248.94;1673416;84;21069;-82
2021/07/15 01:27:29;;;;;;;10.25;9.28;;;;;;;25.64;60.86;100243.02;1691922;83;21658;-82
2021/07/15 01:30:19;;;;;;;12.88;9.90;;;;;;;25.60;61.10;100242.53;1697013;83;21034;-81
2021/07/15 01:33:16;;;;;;;11.88;9.73;;;;;;;25.50;61.54;100240.71;1684115;83;21204;-81
2021/07/15 01:36:05;;;;;;;11.03;10.05;;;;;;;25.47;61.56;100237.22;1662143;84;21732;-79
2021/07/15 01:38:44;;;;;;;12.93;9.50;;;;;;;25.49;61.43;100239.66;1641002;85;21042;-82
2021/07/15 01:41:15;;;;;;;11.88;10.63;;;;;;;25.49;61.41;100243.20;1697457;83;21137;-81
2021/07/15 01:43:48;;;;;;;16.77;10.15;;;;;;;25.48;61.35;100247.58;1682091;83;21612;-81
2021/07/15 01:46:18;;;;;;;10.48;9.58;;;;;;;25.44;61.41;100246.78;1685126;83;21554;-79
2021/07/15 01:48:48;;;;;;;16.60;9.80;;;;;;;25.40;61.58;100242.20;1697491;83;21673;-81
2021/07/15 01:51:16;;;;;;;11.10;9.65;;;;;;;25.42;61.66;100246.82;1719342;81;21082;-81
2021/07/15 01:53:43;;;;;;;10.00;9.13;;;;;;;25.50;61.50;100244.00;1689022;81;21073;-81
2021/07/15 01:56:12;;;;;;;10.03;9.13;;;;;;;25.52;61.54;100253.52;1697466;82;21090;-80
2021/07/15 01:58:41;;;;;;;11.20;10.20;;;;;;;25.47;61.67;100252.75;1699747;83;21039;-82
2021/07/15 02:01:10;;;;;;;12.85;10.30;;;;;;;25.35;61.87;100251.80;1687349;83;21086;-81
2021/07/15 02:03:41;;;;;;;10.72;9.78;;;;;;;25.24;62.33;100257.91;1659380;85;21068;-81
2021/07/15 02:06:10;;;;;;;9.95;9.05;;;;;;;25.20;62.44;100261.75;1652348;84;21026;-77
2021/07/15 02:08:37;;;;;;;9.45;8.55;;;;;;;25.21;62.52;100259.27;1684032;82;21096;-80
2021/07/15 02:11:08;;;;;;;10.38;9.25;;;;;;;25.18;62.65;100261.76;1694543;83;21124;-81
2021/07/15 02:13:37;;;;;;;10.48;9.65;;;;;;;25.03;62.90;100255.90;1626976;86;21042;-80
2021/07/15 02:16:07;;;;;;;14.60;10.65;;;;;;;25.00;63.15;100263.31;1671317;84;21042;-79
2021/07/15 02:18:36;;;;;;;11.25;10.25;;;;;;;24.91;63.41;100259.02;1685056;84;21062;-79
2021/07/15 02:21:05;;;;;;;10.32;9.50;;;;;;;24.87;63.52;100252.52;1664892;84;21626;-79
2021/07/15 02:23:33;;;;;;;13.80;10.80;;;;;;;24.91;63.47;100253.56;1677643;83;21119;-79
2021/07/15 02:26:02;;;;;;;11.35;10.45;;;;;;;24.93;63.35;100260.09;1674842;84;21077;-79
2021/07/15 02:28:29;;;;;;;11.78;10.00;;;;;;;24.94;63.23;100254.89;1698731;83;21136;-80
2021/07/15 02:31:04;;;;;;;11.73;10.13;;;;;;;24.97;63.31;100256.50;1679041;84;21052;-82
2021/07/15 02:33:32;;;;;;;11.75;10.65;;;;;;;25.02;63.19;100257.82;1665294;84;21107;-83
2021/07/15 02:36:03;;;;;;;10.32;9.23;;;;;;;25.14;62.87;100257.98;1661080;84;21675;-81
2021/07/15 02:38:33;;;;;;;10.93;9.58;;;;;;;25.28;62.44;100260.34;1663236;84;21111;-79
2021/07/15 02:41:02;;;;;;;16.23;10.18;;;;;;;25.34;62.22;100258.38;1678638;84;21085;-80
2021/07/15 02:43:29;;;;;;;12.03;10.25;;;;;;;25.33;62.12;100256.17;1672254;84;22284;-81
2021/07/15 02:45:56;;;;;;;10.95;9.30;;;;;;;25.35;62.12;100261.34;1643378;84;21251;-81
2021/07/15 02:48:23;;;;;;;11.05;9.68;;;;;;;25.41;62.03;100264.27;1699314;83;21045;-80
2021/07/15 02:50:51;;;;;;;10.88;9.53;;;;;;;25.51;61.90;100265.55;1701359;83;21048;-80
2021/07/15 02:53:21;;;;;;;11.00;10.10;;;;;;;25.59;61.53;100260.00;1702034;83;21165;-82
2021/07/15 02:56:02;;;;;;;12.35;10.32;;;;;;;25.59;61.44;100253.17;1691864;83;21046;-82
2021/07/15 02:58:44;;;;;;;11.12;10.23;;;;;;;25.54;61.51;100260.88;1653306;84;21179;-82
2021/07/15 03:01:15;;;;;;;15.30;10.10;;;;;;;25.50;61.87;100256.28;1668610;84;21033;-81
2021/07/15 03:03:53;;;;;;;11.12;9.85;;;;;;;25.66;61.52;100266.48;1674407;84;21165;-81
2021/07/15 03:06:38;;;;;;;9.60;8.83;;;;;;;25.79;61.09;100258.95;1675971;84;21041;-81
2021/07/15 03:09:20;;;;;;;11.68;9.55;;;;;;;25.96;60.50;100258.50;1655601;85;21249;-80
2021/07/15 03:12:00;;;;;;;10.40;9.58;;;;;;;26.16;60.06;100266.95;1672149;84;21093;-81
2021/07/15 03:14:33;;;;;;;10.53;9.00;;;;;;;26.35;59.23;100265.59;1650559;84;21438;-82
2021/07/15 03:17:02;;;;;;;10.85;9.63;;;;;;;26.59;58.52;100266.87;1682720;84;21088;-81
2021/07/15 03:19:33;;;;;;;11.38;10.18;;;;;;;26.73;58.63;100266.94;1701527;82;21109;-82
2021/07/15 03:22:05;;;;;;;10.75;9.65;;;;;;;26.88;58.27;100264.52;1670632;84;21056;-80
2021/07/15 03:24:38;;;;;;;9.43;8.68;;;;;;;27.03;57.95;100268.38;1673992;84;21064;-83
2021/07/15 03:27:05;;;;;;;13.45;10.00;;;;;;;27.27;57.18;100266.86;1670606;84;21041;-82
2021/07/15 03:29:34;;;;;;;9.65;8.80;;;;;;;27.52;56.39;100266.11;1677407;84;21132;-80
2021/07/15 03:32:04;;;;;;;17.48;9.10;;;;;;;27.72;56.10;100264.91;1665570;84;21587;-82
2021/07/15 03:34:33;;;;;;;9.35;8.43;;;;;;;27.85;56.06;100260.54;1693671;83;21122;-83
2021/07/15 03:37:02;;;;;;;11.05;8.38;;;;;;;26.83;55.03;100075.95;1697339;83;21022;-81
2021/07/15 03:39:29;;;;;;;13.93;9.43;;;;;;;27.88;53.20;100224.34;1718444;81;21097;-81
2021/07/15 03:41:55;;;;;;;14.40;8.93;;;;;;;28.17;53.22;100269.75;1662210;84;21628;-82
2021/07/15 03:44:25;;;;;;;12.80;8.60;;;;;;;28.20;52.81;100263.09;1714963;82;21279;-81
2021/07/15 03:46:54;;;;;;;11.12;9.03;;;;;;;28.36;53.16;100267.66;1670012;84;21113;-81
2021/07/15 03:49:26;;;;;;;12.58;8.95;;;;;;;28.60;52.07;100267.40;1662907;84;21165;-81
2021/07/15 03:51:53;;;;;;;13.60;8.65;;;;;;;28.81;51.74;100269.08;1712033;83;21054;-80
2021/07/15 03:54:23;;;;;;;12.15;7.65;;;;;;;29.07;50.92;100271.18;1688859;83;21045;-82
2021/07/15 03:56:52;;;;;;;10.53;8.25;;;;;;;29.29;49.80;100272.53;1683820;82;21126;-83
2021/07/15 03:59:21;;;;;;;11.80;7.50;;;;;;;29.52;49.32;100277.96;1683755;83;21160;-82
2021/07/15 04:02:02;;;;;;;8.93;7.53;;;;;;;29.67;48.64;100272.03;1693125;83;21131;-80
2021/07/15 04:04:30;;;;;;;14.13;7.97;;;;;;;29.79;48.79;100270.07;1684674;83;21126;-84
2021/07/15 04:07:03;;;;;;;11.60;7.12;;;;;;;29.93;47.92;100270.50;1701247;83;21151;-82
2021/07/15 04:09:35;;;;;;;12.43;8.55;;;;;;;30.05;47.40;100272.88;1699238;83;21054;-82
2021/07/15 04:12:03;;;;;;;11.78;6.67;;;;;;;30.12;46.62;100264.70;1710897;82;21577;-82
2021/07/15 04:14:50;;;;;;;11.00;7.92;;;;;;;30.09;47.20;100266.17;1717877;81;21187;-82
2021/07/15 04:17:17;;;;;;;9.50;8.03;;;;;;;30.13;46.92;100267.14;1712286;81;21099;-81
2021/07/15 04:19:45;;;;;;;12.88;7.55;;;;;;;30.29;46.53;100267.49;1708450;82;21097;-81
2021/07/15 04:22:12;;;;;;;8.15;7.05;;;;;;;30.46;46.52;100266.14;1710806;81;21025;-81
2021/07/15 04:24:42;;;;;;;7.92;6.67;;;;;;;30.68;45.85;100263.53;1720761;82;21057;-81
2021/07/15 04:27:10;;;;;;;12.63;8.08;;;;;;;30.83;44.75;100259.69;1708838;82;21046;-81
2021/07/15 04:29:40;;;;;;;8.23;7.42;;;;;;;31.01;44.83;100259.12;1712630;82;20985;-81
2021/07/15 04:32:23;;;;;;;8.38;6.70;;;;;;;31.17;44.57;100254.45;1687087;82;21124;-83
2021/07/15 04:34:49;;;;;;;11.75;7.12;;;;;;;31.35;43.70;100249.12;1725354;79;21130;-81
2021/07/15 04:37:18;;;;;;;11.48;10.25;;;;;;;31.57;43.55;100248.63;1713239;81;21013;-83
2021/07/15 04:39:45;;;;;;;9.60;7.15;;;;;;;31.73;43.22;100243.38;1727412;81;20975;-82
2021/07/15 04:42:16;;;;;;;9.73;7.55;;;;;;;31.77;42.68;100240.19;1733482;82;21081;-83
2021/07/15 04:47:18;;;;;;;10.55;7.17;;;;;;;31.97;42.79;100231.13;1786649;78;22217;-83
2021/07/15 04:49:45;;;;;;;10.15;6.62;;;;;;;32.07;41.77;100229.16;1756583;80;21017;-82
2021/07/15 04:52:13;;;;;;;10.03;6.83;;;;;;;32.10;42.42;100232.05;1780264;79;21093;-83
2021/07/15 04:54:41;;;;;;;7.75;6.55;;;;;;;32.11;41.30;100235.59;1787116;79;21045;-81
2021/07/15 04:57:10;;;;;;;11.80;7.20;;;;;;;32.08;41.87;100227.44;1697132;79;21065;-82
2021/07/15 04:59:41;;;;;;;7.78;5.87;;;;;;;32.14;41.08;100223.33;1684731;83;21120;-85
2021/07/15 05:02:07;;;;;;;13.43;5.85;;;;;;;32.19;40.68;100227.82;1688680;83;21013;-83
2021/07/15 05:04:34;;;;;;;8.95;5.83;;;;;;;32.29;40.83;100232.94;1713442;82;21078;-85
2021/07/15 05:07:00;;;;;;;6.20;5.60;;;;;;;32.42;39.78;100226.91;1714972;82;21029;-83
2021/07/15 05:09:26;;;;;;;9.93;5.75;;;;;;;32.51;39.79;100228.19;1714064;82;21531;-82
2021/07/15 05:11:52;;;;;;;10.98;5.60;;;;;;;32.63;39.18;100225.52;1703707;80;21721;-84
2021/07/15 05:14:20;;;;;;;7.53;6.78;;;;;;;32.66;38.98;100224.02;1684296;84;21604;-80
2021/07/15 05:16:46;;;;;;;6.78;5.75;;;;;;;32.63;39.41;100220.00;1667750;84;21043;-83
2021/07/15 05:19:13;;;;;;;13.60;5.20;;;;;;;32.71;38.97;100223.81;1686631;84;21052;-82
2021/07/15 05:21:41;;;;;;;11.22;5.50;;;;;;;32.87;38.42;100228.92;1688997;82;21329;-81
2021/07/15 05:24:07;;;;;;;12.82;5.75;;;;;;;33.00;38.11;100234.45;1708058;81;21075;-84
2021/07/15 05:26:35;;;;;;;11.25;6.37;;;;;;;33.21;37.36;100235.77;1707847;82;21141;-79
2021/07/15 05:29:03;;;;;;;17.20;6.03;;;;;;;33.27;37.21;100231.06;1711730;82;21720;-86
2021/07/15 05:31:30;;;;;;;10.03;4.85;;;;;;;33.26;37.25;100228.64;1711365;82;21170;-84
2021/07/15 05:34:06;;;;;;;8.83;4.92;;;;;;;33.31;37.22;100233.37;1689562;84;21570;-84
2021/07/15 05:36:38;;;;;;;5.85;5.28;;;;;;;33.37;36.80;100231.18;1719566;82;21099;-83
2021/07/15 05:39:05;;;;;;;6.53;4.83;;;;;;;33.33;37.12;100228.89;1717236;82;21042;-86
2021/07/15 05:41:32;;;;;;;6.05;4.70;;;;;;;33.32;36.98;100234.99;1719679;82;21071;-86
2021/07/15 05:43:58;;;;;;;8.60;5.15;;;;;;;33.35;36.94;100231.52;1717090;82;21035;-87
2021/07/15 05:46:25;;;;;;;7.35;5.20;;;;;;;33.40;36.79;100228.30;1681408;84;22137;-87
2021/07/15 05:48:51;;;;;;;9.28;5.08;;;;;;;33.38;36.99;100232.80;1711766;82;21140;-85
2021/07/15 05:51:18;;;;;;;8.20;5.12;;;;;;;33.45;36.80;100228.87;1708495;82;21033;-84
2021/07/15 05:53:45;;;;;;;8.55;4.62;;;;;;;33.51;36.85;100223.36;1707939;82;21045;-85
2021/07/15 05:56:11;;;;;;;6.90;4.67;;;;;;;33.59;36.75;100223.56;1735838;81;20996;-83
2021/07/15 05:58:37;;;;;;;16.93;4.80;;;;;;;33.61;36.70;100220.70;1761926;80;21771;-82
2021/07/15 06:01:03;;;;;;;9.63;5.10;;;;;;;33.62;36.68;100222.30;1759955;80;21556;-78
2021/07/15 06:03:32;;;;;;;4.90;4.55;;;;;;;33.69;36.46;100218.98;1765777;80;20984;-79
2021/07/15 06:05:58;;;;;;;7.22;4.33;;;;;;;33.77;36.35;100220.81;1775323;80;21042;-80
2021/07/15 06:08:25;;;;;;;8.55;4.58;;;;;;;33.92;36.40;100224.23;1764795;80;21350;-79
2021/07/15 06:10:53;;;;;;;5.83;4.45;;;;;;;34.11;35.44;100220.86;1734840;80;21008;-79
2021/07/15 06:13:19;;;;;;;10.00;5.03;;;;;;;34.11;35.46;100223.63;1711619;80;21056;-78
2021/07/15 06:15:47;;;;;;;7.85;4.33;;;;;;;34.06;35.50;100218.92;1703984;82;21524;-80
2021/07/15 06:18:14;;;;;;;8.80;4.95;;;;;;;34.04;35.53;100217.05;1707631;82;21601;-79
2021/07/15 06:20:40;;;;;;;9.68;4.85;;;;;;;34.00;35.91;100217.53;1707934;84;20962;-81
2021/07/15 06:23:10;;;;;;;8.98;4.92;;;;;;;34.03;36.62;100208.55;1729717;80;21476;-80
2021/07/15 06:25:36;;;;;;;4.92;4.53;;;;;;;34.15;36.04;100209.87;1758584;81;21024;-81
2021/07/15 06:28:09;;;;;;;10.03;5.05;;;;;;;34.12;35.57;100209.21;1759654;78;21001;-93
2021/07/15 06:30:35;;;;;;;7.65;4.90;;;;;;;34.05;35.72;100207.63;1758453;81;21205;-81
2021/07/15 06:33:02;;;;;;;4.58;4.22;;;;;;;34.13;35.86;100203.89;1757944;80;21142;-77
2021/07/15 06:35:39;;;;;;;;;;;;;;;;;;;;;
2021/07/15 06:38:25;;;;;;;7.08;4.37;;;;;;;34.22;35.18;100205.97;1751801;80;21051;-85
2021/07/15 06:40:55;;;;;;;9.65;4.83;;;;;;;34.13;35.57;100200.58;1758929;81;21092;-83
2021/07/15 06:43:24;;;;;;;9.60;4.08;;;;;;;34.13;35.36;100198.36;1762023;80;21099;-85
2021/07/15 06:45:52;;;;;;;6.33;4.40;;;;;;;34.00;35.23;100201.77;1760948;78;21080;-85
2021/07/15 06:48:18;;;;;;;6.80;3.80;;;;;;;33.97;35.40;100200.28;1757880;79;21119;-85
2021/07/15 06:50:45;;;;;;;7.42;5.72;;;;;;;33.97;35.48;100197.52;1757094;78;21031;-84
2021/07/15 06:53:11;;;;;;;5.97;4.75;;;;;;;33.98;35.47;100193.58;1757206;81;21084;-84
2021/07/15 06:55:40;;;;;;;5.65;4.90;;;;;;;34.13;35.64;100195.59;1759253;79;21070;-83
2021/07/15 06:58:09;;;;;;;5.22;4.67;;;;;;;34.33;34.83;100191.86;1757671;81;21036;-84
2021/07/15 07:00:38;;;;;;;7.80;4.53;;;;;;;34.52;34.53;100188.42;1762769;80;21489;-88
2021/07/15 07:03:04;;;;;;;9.60;4.15;;;;;;;34.68;33.82;100186.31;1756145;80;21614;-85
2021/07/15 07:05:30;;;;;;;4.30;3.90;;;;;;;34.74;33.29;100193.77;1754699;80;21048;-85
2021/07/15 07:07:58;;;;;;;8.13;3.67;;;;;;;34.75;33.47;100189.83;1758348;80;21052;-85
2021/07/15 07:10:27;;;;;;;4.58;3.98;;;;;;;34.78;33.66;100191.30;1758839;80;21040;-94
2021/07/15 07:12:53;;;;;;;5.65;3.90;;;;;;;34.81;33.35;100189.78;1758792;79;21096;-83
2021/07/15 07:15:20;;;;;;;6.25;3.77;;;;;;;34.72;33.91;100192.73;1758797;80;21012;-84
2021/07/15 07:17:47;;;;;;;7.55;3.95;;;;;;;34.70;33.74;100195.86;1757943;80;21923;-83
2021/07/15 07:20:15;;;;;;;5.20;3.92;;;;;;;34.73;33.82;100197.69;1737440;81;21015;-85
2021/07/15 07:22:42;;;;;;;8.38;3.70;;;;;;;34.80;34.20;100195.91;1763623;80;21028;-82
2021/07/15 07:25:12;;;;;;;5.87;5.28;;;;;;;34.82;32.99;100190.81;1749680;78;21043;-83
2021/07/15 07:27:39;;;;;;;4.35;3.67;;;;;;;34.86;33.15;100185.37;1747085;81;21005;-82
2021/07/15 07:30:09;;;;;;;6.70;3.17;;;;;;;34.88;32.45;100189.97;1758978;81;21079;-85
2021/07/15 07:32:37;;;;;;;3.98;3.67;;;;;;;34.88;32.21;100196.89;1757307;81;21660;-86
2021/07/15 07:35:05;;;;;;;5.17;3.60;;;;;;;34.75;32.31;100196.75;1756869;80;21568;-84
2021/07/15 07:37:32;;;;;;;5.35;2.98;;;;;;;34.65;31.92;100195.28;1759476;81;21016;-84
2021/07/15 07:39:58;;;;;;;5.12;3.22;;;;;;;34.58;32.04;100188.17;1749558;80;21012;-82
2021/07/15 07:42:26;;;;;;;6.72;4.62;;;;;;;34.49;32.14;100188.31;1746069;80;21275;-81
2021/07/15 07:44:52;;;;;;;12.30;3.27;;;;;;;34.39;32.32;100196.56;1722079;81;21158;-81
2021/07/15 07:47:18;;;;;;;3.42;3.08;;;;;;;34.30;32.47;100191.20;1758308;80;21108;-82
2021/07/15 07:49:44;;;;;;;6.12;3.12;;;;;;;34.22;32.90;100189.95;1750481;80;21063;-85
2021/07/15 07:52:13;;;;;;;6.55;3.50;;;;;;;34.17;32.93;100191.58;1760893;80;21787;-81
2021/07/15 07:54:41;;;;;;;11.25;4.47;;;;;;;34.13;32.57;100190.89;1762028;80;21073;-83
2021/07/15 07:57:09;;;;;;;7.65;4.03;;;;;;;34.13;32.49;100196.42;1762679;80;21009;-83
2021/07/15 07:59:38;;;;;;;6.42;3.35;;;;;;;34.10;32.64;100198.50;1732524;81;21017;-82
2021/07/15 08:02:04;;;;;;;5.85;3.02;;;;;;;34.07;32.24;100191.48;1758860;81;21052;-85
2021/07/15 08:04:31;;;;;;;6.42;3.50;;;;;;;34.07;32.34;100192.86;1756218;80;21060;-83
2021/07/15 08:06:57;;;;;;;3.37;3.10;;;;;;;33.99;32.71;100195.20;1757615;81;21393;-82
2021/07/15 08:09:25;;;;;;;4.87;3.80;;;;;;;33.96;32.62;100193.92;1758449;80;21683;-84
2021/07/15 08:11:54;;;;;;;5.90;4.03;;;;;;;33.96;32.88;100193.13;1723513;81;21087;-82
2021/07/15 08:14:22;;;;;;;3.45;3.17;;;;;;;34.02;32.46;100192.55;1735495;81;21067;-82
2021/07/15 08:16:49;;;;;;;4.15;3.85;;;;;;;34.06;32.62;100188.50;1726953;82;21604;-84
2021/07/15 08:19:16;;;;;;;7.62;4.30;;;;;;;34.04;32.45;100193.00;1736188;81;21056;-83
2021/07/15 08:21:42;;;;;;;6.20;3.52;;;;;;;34.03;33.00;100194.72;1736436;81;21036;-82
2021/07/15 08:24:08;;;;;;;8.93;3.87;;;;;;;34.02;32.38;100194.48;1740830;81;20992;-82
2021/07/15 08:26:34;;;;;;;4.37;3.15;;;;;;;33.75;32.70;100154.82;1747633;81;21063;-83
2021/07/15 08:29:01;;;;;;;8.43;3.72;;;;;;;34.02;33.02;100185.63;1747336;81;21009;-83
2021/07/15 08:31:27;;;;;;;9.15;3.92;;;;;;;34.08;32.44;100188.38;1739771;81;21104;-85
2021/07/15 08:33:53;;;;;;;4.67;3.55;;;;;;;34.06;31.85;100189.30;1743631;80;21060;-85
2021/07/15 08:36:20;;;;;;;8.93;3.80;;;;;;;33.96;32.42;100187.02;1736613;81;21036;-88
2021/07/15 08:38:47;;;;;;;4.08;3.70;;;;;;;33.90;32.26;100185.07;1734376;81;22122;-81
2021/07/15 08:41:13;;;;;;;11.25;3.80;;;;;;;33.87;32.10;100181.64;1737068;81;21159;-84
2021/07/15 08:43:40;;;;;;;3.60;3.40;;;;;;;33.92;32.21;100184.14;1735255;81;21083;-84
2021/07/15 08:46:13;;;;;;;6.00;4.22;;;;;;;33.97;32.38;100180.92;1757494;80;21537;-83
2021/07/15 08:48:44;;;;;;;8.25;4.15;;;;;;;33.94;32.36;100188.77;1757863;80;21033;-82
2021/07/15 08:51:15;;;;;;;10.05;3.95;;;;;;;33.89;32.53;100186.83;1752805;80;21016;-80
2021/07/15 08:53:44;;;;;;;9.93;4.00;;;;;;;33.86;32.64;100179.22;1741506;81;21503;-78
2021/07/15 08:59:06;;;;;;;5.47;3.85;;;;;;;33.80;32.66;100179.25;1730699;81;21096;-80
2021/07/15 09:01:35;;;;;;;10.05;4.58;;;;;;;33.87;32.51;100178.88;1746906;81;21089;-81
2021/07/15 09:04:03;;;;;;;5.50;3.85;;;;;;;33.91;32.48;100183.93;1756506;80;21494;-82
2021/07/15 09:06:31;;;;;;;3.80;3.40;;;;;;;33.93;32.33;100177.47;1757110;80;20989;-80
2021/07/15 09:08:57;;;;;;;3.85;3.50;;;;;;;33.92;32.04;100177.23;1759678;81;21072;-85
2021/07/15 09:11:24;;;;;;;3.75;3.55;;;;;;;33.94;31.78;100174.12;1756830;79;21799;-81
2021/07/15 09:13:51;;;;;;;7.35;3.70;;;;;;;33.87;31.59;100160.91;1751027;80;21060;-81
2021/07/15 09:16:18;;;;;;;4.17;3.75;;;;;;;33.85;31.69;100176.22;1752235;80;21021;-81
2021/07/15 09:19:05;;;;;;;5.30;4.15;;;;;;;33.77;32.09;100166.11;1753078;80;21364;-85
2021/07/15 09:21:36;;;;;;;3.42;3.05;;;;;;;33.70;32.27;100164.76;1743900;80;21414;-80
2021/07/15 09:24:25;;;;;;;8.08;4.08;;;;;;;33.68;32.03;100159.33;1755546;79;21435;-83
2021/07/15 09:26:54;;;;;;;9.13;3.12;;;;;;;33.66;31.93;100157.50;1759568;79;21005;-82
2021/07/15 09:29:23;;;;;;;3.92;3.52;;;;;;;33.64;32.24;100157.05;1759402;80;21108;-81
2021/07/15 09:31:58;;;;;;;11.40;2.92;;;;;;;33.59;32.62;100162.77;1744837;80;21107;-83
2021/07/15 09:34:29;;;;;;;6.00;3.70;;;;;;;33.53;32.90;100158.89;1759800;79;21080;-81
2021/07/15 09:36:57;;;;;;;7.08;3.05;;;;;;;33.50;33.02;100153.25;1750841;81;21577;-81
2021/07/15 09:39:27;;;;;;;3.72;3.40;;;;;;;33.53;32.95;100151.16;1750542;81;21021;-81
2021/07/15 09:42:15;;;;;;;7.33;3.20;;;;;;;33.62;31.96;100153.21;1743495;80;21064;-82
2021/07/15 09:44:46;;;;;;;5.37;3.35;;;;;;;33.69;31.97;100149.90;1752985;79;21071;-83
2021/07/15 09:47:40;;;;;;;3.45;3.20;;;;;;;33.78;32.12;100151.16;1744906;81;21094;-82
2021/07/15 09:50:26;;;;;;;8.95;3.83;;;;;;;33.82;31.88;100150.09;1736530;82;21988;-81
2021/07/15 09:53:14;;;;;;;4.62;3.22;;;;;;;33.79;31.65;100148.02;1714381;82;21029;-81
2021/07/15 09:55:42;;;;;;;9.15;3.30;;;;;;;33.82;31.45;100145.15;1716285;81;21014;-82
2021/07/15 09:58:12;;;;;;;6.78;3.50;;;;;;;33.82;31.81;100146.53;1727230;82;21045;-80
2021/07/15 10:00:42;;;;;;;3.47;3.27;;;;;;;33.81;31.88;100140.17;1712263;81;21067;-81
2021/07/15 10:03:14;;;;;;;4.00;3.17;;;;;;;33.86;31.86;100146.05;1732286;82;21029;-78
2021/07/15 10:05:54;;;;;;;7.25;3.50;;;;;;;33.96;31.72;100146.13;1731947;82;21070;-78
2021/07/15 10:08:27;;;;;;;6.75;3.42;;;;;;;34.02;31.67;100138.63;1724083;82;21045;-80
2021/07/15 10:11:17;;;;;;;9.10;4.22;;;;;;;34.09;32.16;100144.92;1689591;84;21058;-81
2021/07/15 10:14:07;;;;;;;5.40;3.67;;;;;;;34.08;31.78;100146.89;1679972;85;21158;-80
2021/07/15 10:16:46;;;;;;;10.10;3.98;;;;;;;33.94;32.09;100139.00;1687704;83;21138;-81
2021/07/15 10:19:22;;;;;;;4.03;3.00;;;;;;;33.95;32.40;100134.27;1678834;85;21054;-81
2021/07/15 10:22:02;;;;;;;2.95;2.75;;;;;;;33.93;32.56;100137.97;1670969;85;21039;-80
2021/07/15 10:24:30;;;;;;;6.70;3.47;;;;;;;33.92;32.05;100134.97;1683356;85;21537;-82
2021/07/15 10:27:10;;;;;;;6.75;3.90;;;;;;;33.83;31.73;100129.60;1687499;84;20999;-82
2021/07/15 10:29:39;;;;;;;7.60;3.55;;;;;;;33.73;32.09;100129.49;1688945;84;21066;-82
2021/07/15 10:32:10;;;;;;;5.33;3.52;;;;;;;33.76;32.03;100130.77;1689377;84;21077;-83
2021/07/15 10:34:39;;;;;;;5.30;3.42;;;;;;;33.83;31.36;100132.36;1672070;83;21109;-80
2021/07/15 10:37:07;;;;;;;4.75;3.70;;;;;;;33.84;31.60;100130.39;1664399;85;21060;-81
2021/07/15 10:39:38;;;;;;;3.60;3.02;;;;;;;33.77;31.79;100126.84;1668686;84;21562;-83
2021/07/15 10:42:07;;;;;;;6.28;3.62;;;;;;;33.79;32.20;100130.63;1665254;85;21173;-82
2021/07/15 10:44:33;;;;;;;7.95;3.45;;;;;;;33.90;31.73;100120.69;1674977;84;21046;-82
2021/07/15 10:47:01;;;;;;;8.13;3.75;;;;;;;33.95;30.88;100125.98;1686780;84;21697;-82
2021/07/15 10:49:28;;;;;;;5.45;3.33;;;;;;;33.91;31.45;100121.73;1703387;83;21112;-80
2021/07/15 10:52:01;;;;;;;3.98;3.20;;;;;;;33.89;31.25;100114.37;1705651;83;21057;-81
2021/07/15 10:54:30;;;;;;;6.17;3.12;;;;;;;33.92;31.09;100120.55;1689537;83;21098;-81
2021/07/15 10:56:58;;;;;;;4.10;3.70;;;;;;;33.89;30.92;100114.37;1686537;83;21064;-82
2021/07/15 11:00:28;;;;;;;11.12;3.37;;;;;;;33.97;31.29;100113.19;1808143;76;22357;-82
2021/07/15 11:03:17;;;;;;;8.38;4.22;;;;;;;34.01;31.02;100116.27;1751006;80;21006;-82
2021/07/15 11:06:00;;;;;;;3.95;3.65;;;;;;;34.02;30.83;100110.98;1758039;80;21045;-83
2021/07/15 11:08:55;;;;;;;5.95;3.35;;;;;;;33.95;31.10;100110.77;1738471;80;21006;-80
2021/07/15 11:11:38;;;;;;;12.43;3.08;;;;;;;33.86;31.69;100106.77;1732865;80;21017;-80
2021/07/15 11:14:27;;;;;;;10.47;3.70;;;;;;;33.80;32.02;100105.41;1736755;81;21080;-81
2021/07/15 11:16:54;;;;;;;6.58;3.40;;;;;;;33.82;31.94;100100.92;1729160;81;21053;-82
2021/07/15 11:20:04;;;;;;;7.30;3.17;;;;;;;33.73;31.85;100100.47;1722602;81;21185;-80
2021/07/15 11:22:48;;;;;;;3.47;3.27;;;;;;;33.66;32.01;100096.70;1702351;82;21057;-80
2021/07/15 11:25:22;;;;;;;3.92;3.30;;;;;;;33.52;31.89;100095.09;1727578;82;20981;-81
2021/07/15 11:27:52;;;;;;;3.20;2.90;;;;;;;33.49;32.35;100092.23;1733330;81;21064;-81
2021/07/15 11:30:37;;;;;;;5.00;3.62;;;;;;;33.56;32.24;100084.95;1729989;82;21836;-81
2021/07/15 11:33:26;;;;;;;8.03;2.67;;;;;;;33.67;32.01;100087.27;1715649;81;21670;-80
2021/07/15 11:36:08;;;;;;;9.68;3.37;;;;;;;33.65;31.90;100083.47;1738849;80;21065;-81
2021/07/15 11:38:39;;;;;;;3.40;3.10;;;;;;;33.60;31.92;100078.73;1741132;80;21564;-80
2021/07/15 11:41:15;;;;;;;5.60;3.05;;;;;;;33.69;31.77;100093.25;1748905;80;21206;-82
2021/07/15 11:43:57;;;;;;;7.53;3.08;;;;;;;33.73;31.49;100083.89;1744579;80;22177;-82
2021/07/15 11:46:36;;;;;;;3.92;3.30;;;;;;;33.75;31.64;100072.48;1748012;79;20981;-83